sensor_id;sensor_type;location;lat;lon;timestamp;temperature;humidity
11704;DHT22;5908;51.354;7.458;2023-09-30T00:02:01;14.10;99.90
11704;DHT22;5908;51.354;7.458;2023-09-30T00:04:29;14.10;99.90
11704;DHT22;5908;51.354;7.458;2023-09-30T00:06:56;14.10;99.90
11704;DHT22;5908;51.354;7.458;2023-09-30T00:09:22;14.20;99.90
11704;DHT22;5908;51.354;7.458;2023-09-30T00:11:49;14.20;99.90
11704;DHT22;5908;51.354;7.458;2023-09-30T00:14:15;14.20;99.90
11704;DHT22;5908;51.354;7.458;2023-09-30T00:16:43;14.20;99.90
11704;DHT22;5908;51.354;7.458;2023-09-30T00:19:10;14.10;99.90
11704;DHT22;5908;51.354;7.458;2023-09-30T00:21:38;14.10;99.90
11704;DHT22;5908;51.354;7.458;2023-09-30T00:24:04;14.00;99.90
11704;DHT22;5908;51.354;7.458;2023-09-30T00:26:31;14.00;99.90
11704;DHT22;5908;51.354;7.458;2023-09-30T00:28:58;14.00;99.90
11704;DHT22;5908;51.354;7.458;2023-09-30T00:31:24;14.00;99.90
11704;DHT22;5908;51.354;7.458;2023-09-30T00:33:51;13.90;99.90
11704;DHT22;5908;51.354;7.458;2023-09-30T00:36:17;13.90;99.90
11704;DHT22;5908;51.354;7.458;2023-09-30T00:38:45;13.90;99.90
11704;DHT22;5908;51.354;7.458;2023-09-30T00:41:12;13.90;99.90
11704;DHT22;5908;51.354;7.458;2023-09-30T00:43:39;13.90;99.90
11704;DHT22;5908;51.354;7.458;2023-09-30T00:46:06;13.90;99.90
11704;DHT22;5908;51.354;7.458;2023-09-30T00:48:36;13.90;99.90
11704;DHT22;5908;51.354;7.458;2023-09-30T00:51:03;13.90;99.90
11704;DHT22;5908;51.354;7.458;2023-09-30T00:53:30;13.90;99.90
11704;DHT22;5908;51.354;7.458;2023-09-30T00:55:58;13.90;99.90
11704;DHT22;5908;51.354;7.458;2023-09-30T00:58:25;13.90;99.90
11704;DHT22;5908;51.354;7.458;2023-09-30T01:00:54;13.90;99.90
11704;DHT22;5908;51.354;7.458;2023-09-30T01:03:21;13.80;99.90
11704;DHT22;5908;51.354;7.458;2023-09-30T01:05:49;13.90;99.90
11704;DHT22;5908;51.354;7.458;2023-09-30T01:08:15;13.90;99.90
11704;DHT22;5908;51.354;7.458;2023-09-30T01:10:42;13.90;99.90
11704;DHT22;5908;51.354;7.458;2023-09-30T01:13:10;13.90;99.90
11704;DHT22;5908;51.354;7.458;2023-09-30T01:15:37;13.90;99.90
11704;DHT22;5908;51.354;7.458;2023-09-30T01:18:04;13.80;99.90
11704;DHT22;5908;51.354;7.458;2023-09-30T01:20:30;13.80;99.90
11704;DHT22;5908;51.354;7.458;2023-09-30T01:22:58;13.80;99.90
11704;DHT22;5908;51.354;7.458;2023-09-30T01:25:25;13.80;99.90
11704;DHT22;5908;51.354;7.458;2023-09-30T01:27:52;13.80;99.90
11704;DHT22;5908;51.354;7.458;2023-09-30T01:30:19;13.80;99.90
11704;DHT22;5908;51.354;7.458;2023-09-30T01:32:47;13.80;99.90
11704;DHT22;5908;51.354;7.458;2023-09-30T01:35:14;13.70;99.90
11704;DHT22;5908;51.354;7.458;2023-09-30T01:37:41;13.70;99.90
11704;DHT22;5908;51.354;7.458;2023-09-30T01:40:09;13.60;99.90
11704;DHT22;5908;51.354;7.458;2023-09-30T01:42:36;13.70;99.90
11704;DHT22;5908;51.354;7.458;2023-09-30T01:45:04;13.70;99.90
11704;DHT22;5908;51.354;7.458;2023-09-30T01:47:30;13.70;99.90
11704;DHT22;5908;51.354;7.458;2023-09-30T01:49:57;13.70;99.90
11704;DHT22;5908;51.354;7.458;2023-09-30T01:52:24;13.70;99.90
11704;DHT22;5908;51.354;7.458;2023-09-30T01:54:51;13.70;99.90
11704;DHT22;5908;51.354;7.458;2023-09-30T01:57:20;13.70;99.90
11704;DHT22;5908;51.354;7.458;2023-09-30T01:59:47;13.80;99.90
11704;DHT22;5908;51.354;7.458;2023-09-30T02:02:14;13.80;99.90
11704;DHT22;5908;51.354;7.458;2023-09-30T02:04:41;13.80;99.90
11704;DHT22;5908;51.354;7.458;2023-09-30T02:07:08;13.80;99.90
11704;DHT22;5908;51.354;7.458;2023-09-30T02:09:34;13.80;99.90
11704;DHT22;5908;51.354;7.458;2023-09-30T02:12:01;13.80;99.90
11704;DHT22;5908;51.354;7.458;2023-09-30T02:14:30;13.80;99.90
11704;DHT22;5908;51.354;7.458;2023-09-30T02:16:58;13.60;99.90
11704;DHT22;5908;51.354;7.458;2023-09-30T02:19:24;13.60;99.90
11704;DHT22;5908;51.354;7.458;2023-09-30T02:21:52;13.50;99.90
11704;DHT22;5908;51.354;7.458;2023-09-30T02:24:19;13.60;99.90
11704;DHT22;5908;51.354;7.458;2023-09-30T02:26:48;13.60;99.90
11704;DHT22;5908;51.354;7.458;2023-09-30T02:29:15;13.60;99.90
11704;DHT22;5908;51.354;7.458;2023-09-30T02:31:43;13.60;99.90
11704;DHT22;5908;51.354;7.458;2023-09-30T02:34:09;13.60;99.90
11704;DHT22;5908;51.354;7.458;2023-09-30T02:36:36;13.50;99.90
11704;DHT22;5908;51.354;7.458;2023-09-30T02:39:03;13.40;99.90
11704;DHT22;5908;51.354;7.458;2023-09-30T02:41:29;13.40;99.90
11704;DHT22;5908;51.354;7.458;2023-09-30T02:43:56;13.50;99.90
11704;DHT22;5908;51.354;7.458;2023-09-30T02:46:23;13.40;99.90
11704;DHT22;5908;51.354;7.458;2023-09-30T02:48:51;13.40;99.90
11704;DHT22;5908;51.354;7.458;2023-09-30T02:51:19;13.40;99.90
11704;DHT22;5908;51.354;7.458;2023-09-30T02:53:45;13.40;99.90
11704;DHT22;5908;51.354;7.458;2023-09-30T02:56:13;13.40;99.90
11704;DHT22;5908;51.354;7.458;2023-09-30T02:58:40;13.40;99.90
11704;DHT22;5908;51.354;7.458;2023-09-30T03:01:06;13.40;99.90
11704;DHT22;5908;51.354;7.458;2023-09-30T03:03:35;13.40;99.90
11704;DHT22;5908;51.354;7.458;2023-09-30T03:06:03;13.40;99.90
11704;DHT22;5908;51.354;7.458;2023-09-30T03:08:29;13.30;99.90
11704;DHT22;5908;51.354;7.458;2023-09-30T03:10:56;13.30;99.90
11704;DHT22;5908;51.354;7.458;2023-09-30T03:13:23;13.30;99.90
11704;DHT22;5908;51.354;7.458;2023-09-30T03:15:50;13.30;99.90
11704;DHT22;5908;51.354;7.458;2023-09-30T03:18:17;13.20;99.90
11704;DHT22;5908;51.354;7.458;2023-09-30T03:20:48;13.10;99.90
11704;DHT22;5908;51.354;7.458;2023-09-30T03:23:17;13.10;99.90
11704;DHT22;5908;51.354;7.458;2023-09-30T03:25:45;13.10;99.90
11704;DHT22;5908;51.354;7.458;2023-09-30T03:28:11;13.10;99.90
11704;DHT22;5908;51.354;7.458;2023-09-30T03:30:40;13.20;99.90
11704;DHT22;5908;51.354;7.458;2023-09-30T03:33:06;13.20;99.90
11704;DHT22;5908;51.354;7.458;2023-09-30T03:35:33;13.30;99.90
11704;DHT22;5908;51.354;7.458;2023-09-30T03:38:02;13.30;99.90
11704;DHT22;5908;51.354;7.458;2023-09-30T03:40:31;13.30;99.90
11704;DHT22;5908;51.354;7.458;2023-09-30T03:42:59;13.30;99.90
11704;DHT22;5908;51.354;7.458;2023-09-30T03:45:26;13.30;99.90
11704;DHT22;5908;51.354;7.458;2023-09-30T03:47:52;13.20;99.90
11704;DHT22;5908;51.354;7.458;2023-09-30T03:50:19;13.10;99.90
11704;DHT22;5908;51.354;7.458;2023-09-30T03:52:48;13.20;99.90
11704;DHT22;5908;51.354;7.458;2023-09-30T03:55:15;13.20;99.90
11704;DHT22;5908;51.354;7.458;2023-09-30T03:57:44;13.20;99.90
11704;DHT22;5908;51.354;7.458;2023-09-30T04:00:13;13.20;99.90
11704;DHT22;5908;51.354;7.458;2023-09-30T04:02:44;13.20;99.90
11704;DHT22;5908;51.354;7.458;2023-09-30T04:05:13;13.10;99.90
11704;DHT22;5908;51.354;7.458;2023-09-30T04:07:42;13.10;99.90
11704;DHT22;5908;51.354;7.458;2023-09-30T04:10:09;13.10;99.90
11704;DHT22;5908;51.354;7.458;2023-09-30T04:12:35;13.00;99.90
11704;DHT22;5908;51.354;7.458;2023-09-30T04:15:04;13.00;99.90
11704;DHT22;5908;51.354;7.458;2023-09-30T04:17:30;13.00;99.90
11704;DHT22;5908;51.354;7.458;2023-09-30T04:19:58;13.00;99.90
11704;DHT22;5908;51.354;7.458;2023-09-30T04:22:25;13.00;99.90
11704;DHT22;5908;51.354;7.458;2023-09-30T04:24:55;13.00;99.90
11704;DHT22;5908;51.354;7.458;2023-09-30T04:27:21;13.00;99.90
11704;DHT22;5908;51.354;7.458;2023-09-30T04:29:48;12.90;99.90
11704;DHT22;5908;51.354;7.458;2023-09-30T04:32:17;12.90;99.90
11704;DHT22;5908;51.354;7.458;2023-09-30T04:34:44;12.90;99.90
11704;DHT22;5908;51.354;7.458;2023-09-30T04:37:12;12.90;99.90
11704;DHT22;5908;51.354;7.458;2023-09-30T04:39:40;12.90;99.90
11704;DHT22;5908;51.354;7.458;2023-09-30T04:42:06;12.90;99.90
11704;DHT22;5908;51.354;7.458;2023-09-30T04:44:36;12.80;99.90
11704;DHT22;5908;51.354;7.458;2023-09-30T04:47:03;12.80;99.90
11704;DHT22;5908;51.354;7.458;2023-09-30T04:49:31;12.70;99.90
11704;DHT22;5908;51.354;7.458;2023-09-30T04:51:57;12.80;99.90
11704;DHT22;5908;51.354;7.458;2023-09-30T04:54:24;12.80;99.90
11704;DHT22;5908;51.354;7.458;2023-09-30T04:56:50;12.80;99.90
11704;DHT22;5908;51.354;7.458;2023-09-30T04:59:17;12.80;99.90
11704;DHT22;5908;51.354;7.458;2023-09-30T05:01:44;12.70;99.90
11704;DHT22;5908;51.354;7.458;2023-09-30T05:04:10;12.70;99.90
11704;DHT22;5908;51.354;7.458;2023-09-30T05:06:38;12.70;99.90
11704;DHT22;5908;51.354;7.458;2023-09-30T05:09:05;12.60;99.90
11704;DHT22;5908;51.354;7.458;2023-09-30T05:11:32;12.60;99.90
11704;DHT22;5908;51.354;7.458;2023-09-30T05:14:00;12.50;99.90
11704;DHT22;5908;51.354;7.458;2023-09-30T05:16:27;12.50;99.90
11704;DHT22;5908;51.354;7.458;2023-09-30T05:18:55;12.40;99.90
11704;DHT22;5908;51.354;7.458;2023-09-30T05:21:21;12.30;99.90
11704;DHT22;5908;51.354;7.458;2023-09-30T05:23:49;12.30;99.90
11704;DHT22;5908;51.354;7.458;2023-09-30T05:26:16;12.30;99.90
11704;DHT22;5908;51.354;7.458;2023-09-30T05:28:43;12.30;99.90
11704;DHT22;5908;51.354;7.458;2023-09-30T05:31:09;12.30;99.90
11704;DHT22;5908;51.354;7.458;2023-09-30T05:33:36;12.30;99.90
11704;DHT22;5908;51.354;7.458;2023-09-30T05:36:03;12.30;99.90
11704;DHT22;5908;51.354;7.458;2023-09-30T05:38:29;12.20;99.90
11704;DHT22;5908;51.354;7.458;2023-09-30T05:40:58;12.20;99.90
11704;DHT22;5908;51.354;7.458;2023-09-30T05:43:25;12.10;99.90
11704;DHT22;5908;51.354;7.458;2023-09-30T05:45:52;12.10;99.90
11704;DHT22;5908;51.354;7.458;2023-09-30T05:48:20;12.20;99.90
11704;DHT22;5908;51.354;7.458;2023-09-30T05:50:46;12.20;99.90
11704;DHT22;5908;51.354;7.458;2023-09-30T05:53:13;12.30;99.90
11704;DHT22;5908;51.354;7.458;2023-09-30T05:55:40;12.30;99.90
11704;DHT22;5908;51.354;7.458;2023-09-30T05:58:09;12.30;99.90
11704;DHT22;5908;51.354;7.458;2023-09-30T06:00:39;12.40;99.90
11704;DHT22;5908;51.354;7.458;2023-09-30T06:03:07;12.30;99.90
11704;DHT22;5908;51.354;7.458;2023-09-30T06:05:34;12.30;99.90
11704;DHT22;5908;51.354;7.458;2023-09-30T06:08:00;12.40;99.90
11704;DHT22;5908;51.354;7.458;2023-09-30T06:10:28;12.40;99.90
11704;DHT22;5908;51.354;7.458;2023-09-30T06:12:55;12.40;99.90
11704;DHT22;5908;51.354;7.458;2023-09-30T06:15:24;12.40;99.90
11704;DHT22;5908;51.354;7.458;2023-09-30T06:17:52;12.50;99.90
11704;DHT22;5908;51.354;7.458;2023-09-30T06:20:19;12.40;99.90
11704;DHT22;5908;51.354;7.458;2023-09-30T06:22:47;12.30;99.90
11704;DHT22;5908;51.354;7.458;2023-09-30T06:25:14;12.20;99.90
11704;DHT22;5908;51.354;7.458;2023-09-30T06:27:42;12.20;99.90
11704;DHT22;5908;51.354;7.458;2023-09-30T06:30:09;12.30;99.90
11704;DHT22;5908;51.354;7.458;2023-09-30T06:32:37;12.40;99.90
11704;DHT22;5908;51.354;7.458;2023-09-30T06:35:04;12.50;99.90
11704;DHT22;5908;51.354;7.458;2023-09-30T06:37:31;12.60;99.90
11704;DHT22;5908;51.354;7.458;2023-09-30T06:39:58;12.60;99.90
11704;DHT22;5908;51.354;7.458;2023-09-30T06:42:26;12.70;99.90
11704;DHT22;5908;51.354;7.458;2023-09-30T06:44:52;12.70;99.90
11704;DHT22;5908;51.354;7.458;2023-09-30T06:47:19;12.70;99.90
11704;DHT22;5908;51.354;7.458;2023-09-30T06:49:47;12.70;99.90
11704;DHT22;5908;51.354;7.458;2023-09-30T06:52:14;12.80;99.90
11704;DHT22;5908;51.354;7.458;2023-09-30T06:54:40;12.80;99.90
11704;DHT22;5908;51.354;7.458;2023-09-30T06:57:07;12.80;99.90
11704;DHT22;5908;51.354;7.458;2023-09-30T06:59:35;12.90;99.90
11704;DHT22;5908;51.354;7.458;2023-09-30T07:04:29;13.00;99.90
11704;DHT22;5908;51.354;7.458;2023-09-30T07:06:57;13.10;99.90
11704;DHT22;5908;51.354;7.458;2023-09-30T07:09:24;13.20;99.90
11704;DHT22;5908;51.354;7.458;2023-09-30T07:11:52;13.20;99.90
11704;DHT22;5908;51.354;7.458;2023-09-30T07:14:18;13.20;99.90
11704;DHT22;5908;51.354;7.458;2023-09-30T07:16:45;13.30;99.90
11704;DHT22;5908;51.354;7.458;2023-09-30T07:19:11;13.40;99.90
11704;DHT22;5908;51.354;7.458;2023-09-30T07:21:38;13.40;99.90
11704;DHT22;5908;51.354;7.458;2023-09-30T07:24:06;13.40;99.90
11704;DHT22;5908;51.354;7.458;2023-09-30T07:26:33;13.50;99.90
11704;DHT22;5908;51.354;7.458;2023-09-30T07:28:59;13.60;99.90
11704;DHT22;5908;51.354;7.458;2023-09-30T07:31:26;13.60;99.90
11704;DHT22;5908;51.354;7.458;2023-09-30T07:33:53;13.70;99.90
11704;DHT22;5908;51.354;7.458;2023-09-30T07:36:19;13.70;99.90
11704;DHT22;5908;51.354;7.458;2023-09-30T07:38:46;13.80;99.90
11704;DHT22;5908;51.354;7.458;2023-09-30T07:41:14;13.80;99.90
11704;DHT22;5908;51.354;7.458;2023-09-30T07:43:41;13.80;99.90
11704;DHT22;5908;51.354;7.458;2023-09-30T07:46:07;13.90;99.90
11704;DHT22;5908;51.354;7.458;2023-09-30T07:48:34;14.00;99.90
11704;DHT22;5908;51.354;7.458;2023-09-30T07:51:01;14.00;99.90
11704;DHT22;5908;51.354;7.458;2023-09-30T07:53:28;14.10;99.90
11704;DHT22;5908;51.354;7.458;2023-09-30T07:55:55;14.20;99.90
11704;DHT22;5908;51.354;7.458;2023-09-30T07:58:23;14.30;99.90
11704;DHT22;5908;51.354;7.458;2023-09-30T08:00:50;14.40;99.90
11704;DHT22;5908;51.354;7.458;2023-09-30T08:03:17;14.40;99.90
11704;DHT22;5908;51.354;7.458;2023-09-30T08:05:43;14.50;99.90
11704;DHT22;5908;51.354;7.458;2023-09-30T08:08:11;14.60;99.90
11704;DHT22;5908;51.354;7.458;2023-09-30T08:10:39;14.60;99.90
11704;DHT22;5908;51.354;7.458;2023-09-30T08:13:06;14.70;99.90
11704;DHT22;5908;51.354;7.458;2023-09-30T08:15:34;14.80;99.90
11704;DHT22;5908;51.354;7.458;2023-09-30T08:18:00;14.80;99.90
11704;DHT22;5908;51.354;7.458;2023-09-30T08:20:28;14.90;99.90
11704;DHT22;5908;51.354;7.458;2023-09-30T08:22:54;14.90;99.90
11704;DHT22;5908;51.354;7.458;2023-09-30T08:25:21;15.00;99.90
11704;DHT22;5908;51.354;7.458;2023-09-30T08:27:48;15.00;99.90
11704;DHT22;5908;51.354;7.458;2023-09-30T08:30:15;15.10;99.90
11704;DHT22;5908;51.354;7.458;2023-09-30T08:32:43;15.20;99.90
11704;DHT22;5908;51.354;7.458;2023-09-30T08:35:11;15.20;99.90
11704;DHT22;5908;51.354;7.458;2023-09-30T08:37:39;15.30;99.90
11704;DHT22;5908;51.354;7.458;2023-09-30T08:40:07;15.30;99.90
11704;DHT22;5908;51.354;7.458;2023-09-30T08:42:35;15.40;99.90
11704;DHT22;5908;51.354;7.458;2023-09-30T08:45:02;15.50;99.90
11704;DHT22;5908;51.354;7.458;2023-09-30T08:47:31;15.50;99.90
11704;DHT22;5908;51.354;7.458;2023-09-30T08:50:00;15.60;99.90
11704;DHT22;5908;51.354;7.458;2023-09-30T08:52:32;15.70;99.90
11704;DHT22;5908;51.354;7.458;2023-09-30T08:54:57;15.80;99.90
11704;DHT22;5908;51.354;7.458;2023-09-30T08:57:24;15.80;99.90
11704;DHT22;5908;51.354;7.458;2023-09-30T08:59:51;15.90;99.90
11704;DHT22;5908;51.354;7.458;2023-09-30T09:02:19;15.90;99.90
11704;DHT22;5908;51.354;7.458;2023-09-30T09:04:45;16.00;99.90
11704;DHT22;5908;51.354;7.458;2023-09-30T09:07:13;16.10;99.90
11704;DHT22;5908;51.354;7.458;2023-09-30T09:09:40;16.50;99.90
11704;DHT22;5908;51.354;7.458;2023-09-30T09:12:18;16.90;99.90
11704;DHT22;5908;51.354;7.458;2023-09-30T09:14:45;17.30;99.90
11704;DHT22;5908;51.354;7.458;2023-09-30T09:17:13;17.60;99.90
11704;DHT22;5908;51.354;7.458;2023-09-30T09:19:41;17.90;99.90
11704;DHT22;5908;51.354;7.458;2023-09-30T09:22:08;18.10;99.90
11704;DHT22;5908;51.354;7.458;2023-09-30T09:24:38;18.30;99.90
11704;DHT22;5908;51.354;7.458;2023-09-30T09:27:08;18.00;99.90
11704;DHT22;5908;51.354;7.458;2023-09-30T09:29:36;18.40;99.90
11704;DHT22;5908;51.354;7.458;2023-09-30T09:32:10;18.60;99.90
11704;DHT22;5908;51.354;7.458;2023-09-30T09:34:37;18.20;99.90
11704;DHT22;5908;51.354;7.458;2023-09-30T09:37:16;17.80;99.90
11704;DHT22;5908;51.354;7.458;2023-09-30T09:39:51;17.70;99.90
11704;DHT22;5908;51.354;7.458;2023-09-30T09:42:28;17.70;99.90
11704;DHT22;5908;51.354;7.458;2023-09-30T09:44:56;17.70;99.90
11704;DHT22;5908;51.354;7.458;2023-09-30T09:47:23;17.90;99.90
11704;DHT22;5908;51.354;7.458;2023-09-30T09:49:51;18.10;99.90
11704;DHT22;5908;51.354;7.458;2023-09-30T09:52:19;18.50;99.90
11704;DHT22;5908;51.354;7.458;2023-09-30T09:54:46;18.80;99.90
11704;DHT22;5908;51.354;7.458;2023-09-30T09:57:16;19.10;99.90
11704;DHT22;5908;51.354;7.458;2023-09-30T09:59:44;19.30;99.10
11704;DHT22;5908;51.354;7.458;2023-09-30T10:02:13;19.50;97.40
11704;DHT22;5908;51.354;7.458;2023-09-30T10:04:41;19.70;97.50
11704;DHT22;5908;51.354;7.458;2023-09-30T10:07:10;19.90;96.40
11704;DHT22;5908;51.354;7.458;2023-09-30T10:09:43;19.80;94.90
11704;DHT22;5908;51.354;7.458;2023-09-30T10:12:12;19.70;94.30
11704;DHT22;5908;51.354;7.458;2023-09-30T10:14:40;19.60;95.20
11704;DHT22;5908;51.354;7.458;2023-09-30T10:17:07;19.60;95.20
11704;DHT22;5908;51.354;7.458;2023-09-30T10:19:34;19.70;95.70
11704;DHT22;5908;51.354;7.458;2023-09-30T10:22:20;19.80;95.30
11704;DHT22;5908;51.354;7.458;2023-09-30T10:24:52;19.90;94.20
11704;DHT22;5908;51.354;7.458;2023-09-30T10:27:35;19.80;93.20
11704;DHT22;5908;51.354;7.458;2023-09-30T10:30:10;19.80;93.20
11704;DHT22;5908;51.354;7.458;2023-09-30T10:33:13;19.90;92.70
11704;DHT22;5908;51.354;7.458;2023-09-30T10:35:50;19.90;92.00
11704;DHT22;5908;51.354;7.458;2023-09-30T10:38:38;19.90;91.80
11704;DHT22;5908;51.354;7.458;2023-09-30T10:41:08;19.70;91.90
11704;DHT22;5908;51.354;7.458;2023-09-30T10:43:38;19.60;91.80
11704;DHT22;5908;51.354;7.458;2023-09-30T10:46:30;19.50;92.20
11704;DHT22;5908;51.354;7.458;2023-09-30T10:49:14;19.70;90.10
11704;DHT22;5908;51.354;7.458;2023-09-30T10:51:43;19.70;90.90
11704;DHT22;5908;51.354;7.458;2023-09-30T10:54:12;19.90;91.60
11704;DHT22;5908;51.354;7.458;2023-09-30T10:56:39;19.90;91.40
11704;DHT22;5908;51.354;7.458;2023-09-30T10:59:06;20.10;91.40
11704;DHT22;5908;51.354;7.458;2023-09-30T11:01:34;20.20;91.60
11704;DHT22;5908;51.354;7.458;2023-09-30T11:04:03;20.50;91.30
11704;DHT22;5908;51.354;7.458;2023-09-30T11:06:31;20.30;91.90
11704;DHT22;5908;51.354;7.458;2023-09-30T11:08:59;20.20;92.10
11704;DHT22;5908;51.354;7.458;2023-09-30T11:11:36;20.20;92.40
11704;DHT22;5908;51.354;7.458;2023-09-30T11:14:17;20.30;92.30
11704;DHT22;5908;51.354;7.458;2023-09-30T11:16:45;20.30;91.20
11704;DHT22;5908;51.354;7.458;2023-09-30T11:19:12;20.20;91.30
11704;DHT22;5908;51.354;7.458;2023-09-30T11:21:41;20.30;90.40
11704;DHT22;5908;51.354;7.458;2023-09-30T11:24:09;20.40;90.50
11704;DHT22;5908;51.354;7.458;2023-09-30T11:26:36;20.40;90.20
11704;DHT22;5908;51.354;7.458;2023-09-30T11:29:07;20.50;89.80
11704;DHT22;5908;51.354;7.458;2023-09-30T11:31:36;20.60;87.30
11704;DHT22;5908;51.354;7.458;2023-09-30T11:34:04;20.70;87.70
11704;DHT22;5908;51.354;7.458;2023-09-30T11:36:33;20.70;86.20
11704;DHT22;5908;51.354;7.458;2023-09-30T11:39:00;20.50;85.90
11704;DHT22;5908;51.354;7.458;2023-09-30T11:41:32;20.20;87.10
11704;DHT22;5908;51.354;7.458;2023-09-30T11:43:59;19.90;86.80
11704;DHT22;5908;51.354;7.458;2023-09-30T11:46:47;19.70;87.20
11704;DHT22;5908;51.354;7.458;2023-09-30T11:49:25;19.70;85.40
11704;DHT22;5908;51.354;7.458;2023-09-30T11:51:52;19.80;86.10
11704;DHT22;5908;51.354;7.458;2023-09-30T11:54:19;19.90;86.00
11704;DHT22;5908;51.354;7.458;2023-09-30T11:56:47;20.10;86.00
11704;DHT22;5908;51.354;7.458;2023-09-30T11:59:13;20.10;84.50
11704;DHT22;5908;51.354;7.458;2023-09-30T12:01:40;20.00;85.20
11704;DHT22;5908;51.354;7.458;2023-09-30T12:04:08;19.90;83.20
11704;DHT22;5908;51.354;7.458;2023-09-30T12:06:37;19.90;83.90
11704;DHT22;5908;51.354;7.458;2023-09-30T12:09:04;19.80;84.00
11704;DHT22;5908;51.354;7.458;2023-09-30T12:11:32;19.70;81.60
11704;DHT22;5908;51.354;7.458;2023-09-30T12:13:59;19.60;82.00
11704;DHT22;5908;51.354;7.458;2023-09-30T12:16:26;19.40;83.10
11704;DHT22;5908;51.354;7.458;2023-09-30T12:18:52;19.50;83.10
11704;DHT22;5908;51.354;7.458;2023-09-30T12:21:19;19.60;82.50
11704;DHT22;5908;51.354;7.458;2023-09-30T12:23:47;19.80;82.90
11704;DHT22;5908;51.354;7.458;2023-09-30T12:26:14;19.90;81.60
11704;DHT22;5908;51.354;7.458;2023-09-30T12:28:43;20.10;81.40
11704;DHT22;5908;51.354;7.458;2023-09-30T12:31:09;20.30;81.60
11704;DHT22;5908;51.354;7.458;2023-09-30T12:33:36;20.60;82.10
11704;DHT22;5908;51.354;7.458;2023-09-30T12:36:03;20.90;81.50
11704;DHT22;5908;51.354;7.458;2023-09-30T12:38:30;21.10;82.80
11704;DHT22;5908;51.354;7.458;2023-09-30T12:40:58;21.20;82.80
11704;DHT22;5908;51.354;7.458;2023-09-30T12:43:25;21.30;82.80
11704;DHT22;5908;51.354;7.458;2023-09-30T12:45:52;21.20;83.70
11704;DHT22;5908;51.354;7.458;2023-09-30T12:48:19;21.10;83.20
11704;DHT22;5908;51.354;7.458;2023-09-30T12:50:45;20.90;82.30
11704;DHT22;5908;51.354;7.458;2023-09-30T12:53:13;20.70;82.20
11704;DHT22;5908;51.354;7.458;2023-09-30T12:55:40;20.50;82.50
11704;DHT22;5908;51.354;7.458;2023-09-30T12:58:08;20.40;83.90
11704;DHT22;5908;51.354;7.458;2023-09-30T13:00:35;20.10;84.10
11704;DHT22;5908;51.354;7.458;2023-09-30T13:03:02;19.90;84.10
11704;DHT22;5908;51.354;7.458;2023-09-30T13:05:29;19.80;84.20
11704;DHT22;5908;51.354;7.458;2023-09-30T13:07:56;19.70;85.20
11704;DHT22;5908;51.354;7.458;2023-09-30T13:10:22;19.80;86.20
11704;DHT22;5908;51.354;7.458;2023-09-30T13:12:49;19.80;86.80
11704;DHT22;5908;51.354;7.458;2023-09-30T13:15:17;19.80;86.70
11704;DHT22;5908;51.354;7.458;2023-09-30T13:17:44;19.70;86.80
11704;DHT22;5908;51.354;7.458;2023-09-30T13:20:11;19.60;87.20
11704;DHT22;5908;51.354;7.458;2023-09-30T13:22:37;19.60;85.90
11704;DHT22;5908;51.354;7.458;2023-09-30T13:25:04;19.60;87.80
11704;DHT22;5908;51.354;7.458;2023-09-30T13:27:31;19.60;89.00
11704;DHT22;5908;51.354;7.458;2023-09-30T13:29:58;19.50;85.00
11704;DHT22;5908;51.354;7.458;2023-09-30T13:32:27;19.40;86.20
11704;DHT22;5908;51.354;7.458;2023-09-30T13:34:54;19.30;86.90
11704;DHT22;5908;51.354;7.458;2023-09-30T13:37:20;19.40;86.90
11704;DHT22;5908;51.354;7.458;2023-09-30T13:39:47;19.40;86.90
11704;DHT22;5908;51.354;7.458;2023-09-30T13:42:15;19.50;89.80
11704;DHT22;5908;51.354;7.458;2023-09-30T13:44:43;19.50;85.80
11704;DHT22;5908;51.354;7.458;2023-09-30T13:47:09;19.60;85.00
11704;DHT22;5908;51.354;7.458;2023-09-30T13:49:37;19.60;84.40
11704;DHT22;5908;51.354;7.458;2023-09-30T13:52:04;19.70;82.80
11704;DHT22;5908;51.354;7.458;2023-09-30T13:54:31;19.70;84.30
11704;DHT22;5908;51.354;7.458;2023-09-30T13:56:57;19.70;86.00
11704;DHT22;5908;51.354;7.458;2023-09-30T13:59:24;19.70;85.10
11704;DHT22;5908;51.354;7.458;2023-09-30T14:01:51;19.70;85.30
11704;DHT22;5908;51.354;7.458;2023-09-30T14:04:18;19.80;85.70
11704;DHT22;5908;51.354;7.458;2023-09-30T14:06:46;19.80;85.40
11704;DHT22;5908;51.354;7.458;2023-09-30T14:09:13;19.80;84.20
11704;DHT22;5908;51.354;7.458;2023-09-30T14:11:40;19.80;84.00
11704;DHT22;5908;51.354;7.458;2023-09-30T14:14:06;19.80;84.60
11704;DHT22;5908;51.354;7.458;2023-09-30T14:16:34;19.80;85.10
11704;DHT22;5908;51.354;7.458;2023-09-30T14:19:01;19.90;85.00
11704;DHT22;5908;51.354;7.458;2023-09-30T14:21:28;19.80;86.10
11704;DHT22;5908;51.354;7.458;2023-09-30T14:23:56;19.80;86.50
11704;DHT22;5908;51.354;7.458;2023-09-30T14:26:22;19.80;86.40
11704;DHT22;5908;51.354;7.458;2023-09-30T14:28:49;19.80;86.30
11704;DHT22;5908;51.354;7.458;2023-09-30T14:31:16;19.80;87.30
11704;DHT22;5908;51.354;7.458;2023-09-30T14:33:43;19.70;88.20
11704;DHT22;5908;51.354;7.458;2023-09-30T14:36:09;19.70;89.00
11704;DHT22;5908;51.354;7.458;2023-09-30T14:38:36;19.60;90.00
11704;DHT22;5908;51.354;7.458;2023-09-30T14:41:07;19.60;89.40
11704;DHT22;5908;51.354;7.458;2023-09-30T14:43:35;19.50;88.90
11704;DHT22;5908;51.354;7.458;2023-09-30T14:46:01;19.50;90.70
11704;DHT22;5908;51.354;7.458;2023-09-30T14:48:28;19.50;91.30
11704;DHT22;5908;51.354;7.458;2023-09-30T14:50:55;19.40;91.80
11704;DHT22;5908;51.354;7.458;2023-09-30T14:53:22;19.50;92.10
11704;DHT22;5908;51.354;7.458;2023-09-30T14:55:48;19.50;92.30
11704;DHT22;5908;51.354;7.458;2023-09-30T14:58:16;19.50;92.20
11704;DHT22;5908;51.354;7.458;2023-09-30T15:00:44;19.50;92.40
11704;DHT22;5908;51.354;7.458;2023-09-30T15:03:11;19.50;92.00
11704;DHT22;5908;51.354;7.458;2023-09-30T15:05:38;19.50;92.40
11704;DHT22;5908;51.354;7.458;2023-09-30T15:08:04;19.40;92.60
11704;DHT22;5908;51.354;7.458;2023-09-30T15:10:33;19.30;92.50
11704;DHT22;5908;51.354;7.458;2023-09-30T15:13:00;19.20;92.60
11704;DHT22;5908;51.354;7.458;2023-09-30T15:15:28;19.20;92.90
11704;DHT22;5908;51.354;7.458;2023-09-30T15:17:55;19.10;92.90
11704;DHT22;5908;51.354;7.458;2023-09-30T15:32:41;18.90;99.90
11704;DHT22;5908;51.354;7.458;2023-09-30T15:35:08;18.80;99.90
11704;DHT22;5908;51.354;7.458;2023-09-30T15:37:34;18.70;99.90
11704;DHT22;5908;51.354;7.458;2023-09-30T15:40:01;18.70;94.60
11704;DHT22;5908;51.354;7.458;2023-09-30T15:42:28;18.70;94.70
11704;DHT22;5908;51.354;7.458;2023-09-30T15:44:54;18.70;95.40
11704;DHT22;5908;51.354;7.458;2023-09-30T15:47:23;18.60;95.20
11704;DHT22;5908;51.354;7.458;2023-09-30T15:49:51;18.60;95.60
11704;DHT22;5908;51.354;7.458;2023-09-30T15:52:17;18.60;95.40
11704;DHT22;5908;51.354;7.458;2023-09-30T15:54:44;18.50;95.40
11704;DHT22;5908;51.354;7.458;2023-09-30T15:57:10;18.50;95.40
11704;DHT22;5908;51.354;7.458;2023-09-30T15:59:37;18.40;95.50
11704;DHT22;5908;51.354;7.458;2023-09-30T16:02:05;18.30;95.60
11704;DHT22;5908;51.354;7.458;2023-09-30T16:04:32;18.30;96.00